createdAt,value
2023-03-19T00:01:23.995Z,6.63
2023-03-19T00:06:26.617Z,5.33
2023-03-19T00:11:28.875Z,3.73
2023-03-19T00:16:31.268Z,6.87
2023-03-19T00:21:33.578Z,6.57
2023-03-19T00:26:37.858Z,5.10
2023-03-19T00:31:40.987Z,3.90
2023-03-19T00:36:43.155Z,3.80
2023-03-19T00:41:50.702Z,3.70
2023-03-19T00:47:00.939Z,3.83
2023-03-19T00:52:03.147Z,5.20
2023-03-19T00:57:05.931Z,3.90
2023-03-19T01:02:09.207Z,3.53
2023-03-19T01:07:11.647Z,3.03
2023-03-19T01:12:13.876Z,1.87
2023-03-19T01:17:16.279Z,2.03
2023-03-19T01:22:18.646Z,3.73
2023-03-19T01:27:27.333Z,2.33
2023-03-19T01:32:29.825Z,2.20
2023-03-19T01:38:04.630Z,3.47
2023-03-19T01:43:22.562Z,3.90
2023-03-19T01:48:50.620Z,4.43
2023-03-19T01:53:59.306Z,3.23
2023-03-19T01:59:36.698Z,4.77
2023-03-19T02:05:02.155Z,4.80
2023-03-19T02:10:09.247Z,5.60
2023-03-19T02:15:12.954Z,3.53
2023-03-19T02:20:40.922Z,5.77
2023-03-19T02:25:46.627Z,3.93
2023-03-19T02:30:49.702Z,3.03
2023-03-19T02:35:53.516Z,2.13
2023-03-19T02:41:00.539Z,2.90
2023-03-19T02:46:07.637Z,5.60
2023-03-19T02:51:09.995Z,3.83
2023-03-19T02:56:12.480Z,7.67
2023-03-19T03:01:16.042Z,3.77
2023-03-19T03:06:18.407Z,5.50
2023-03-19T03:11:21.845Z,4.17
2023-03-19T03:16:24.514Z,9.50
2023-03-19T03:21:27.333Z,5.37
2023-03-19T03:26:29.625Z,4.70
2023-03-19T03:31:32.274Z,2.50
2023-03-19T03:36:34.460Z,5.30
2023-03-19T03:41:36.779Z,6.77
2023-03-19T03:46:39.114Z,6.17
2023-03-19T03:51:48.146Z,5.13
2023-03-19T03:56:56.144Z,7.77
2023-03-19T04:01:58.814Z,13.50
2023-03-19T04:07:01.285Z,5.23
2023-03-19T04:12:23.883Z,2.50
2023-03-19T04:17:26.492Z,6.27
2023-03-19T04:22:29.184Z,5.90
2023-03-19T04:27:31.462Z,6.07
2023-03-19T04:32:35.823Z,3.60
2023-03-19T04:37:38.663Z,4.47
2023-03-19T04:42:41.760Z,8.53
2023-03-19T04:47:50.154Z,5.07
2023-03-19T04:52:52.453Z,5.40
2023-03-19T04:57:55.177Z,4.80
2023-03-19T05:03:02.673Z,3.90
2023-03-19T05:08:07.747Z,5.93
2023-03-19T05:13:11.094Z,5.37
2023-03-19T05:18:18.038Z,7.87
2023-03-19T05:23:21.545Z,5.57
2023-03-19T05:28:40.366Z,7.47
2023-03-19T05:33:42.793Z,9.70
2023-03-19T05:38:45.487Z,6.13
2023-03-19T05:43:54.676Z,4.75
2023-03-19T05:49:16.897Z,4.90
2023-03-19T05:54:19.758Z,2.73
2023-03-19T05:59:38.518Z,4.20
2023-03-19T06:04:56.939Z,5.27
2023-03-19T06:10:06.813Z,4.10
2023-03-19T06:15:09.820Z,3.83
2023-03-19T06:20:21.088Z,8.00
2023-03-19T06:25:24.599Z,3.80
2023-03-19T06:30:28.104Z,3.60
2023-03-19T06:35:33.378Z,3.20
2023-03-19T06:40:36.484Z,4.37
2023-03-19T06:45:40.674Z,2.67
2023-03-19T06:50:43.205Z,2.70
2023-03-19T06:55:47.336Z,2.87
2023-03-19T07:00:49.886Z,3.60
2023-03-19T07:05:52.233Z,2.73
2023-03-19T07:10:54.482Z,4.47
2023-03-19T07:15:56.681Z,4.37
2023-03-19T07:21:06.132Z,4.80
2023-03-19T07:26:32.902Z,2.67
2023-03-19T07:31:35.363Z,3.80
2023-03-19T07:36:37.798Z,3.27
2023-03-19T07:41:40.168Z,2.63
2023-03-19T07:46:45.212Z,3.17
2023-03-19T07:51:47.696Z,4.57
2023-03-19T07:56:50.316Z,2.27
2023-03-19T08:01:52.550Z,4.83
2023-03-19T08:06:54.805Z,2.97
2023-03-19T08:11:57.132Z,2.97
2023-03-19T08:16:59.439Z,3.33
2023-03-19T08:22:01.732Z,4.33
2023-03-19T08:27:04.141Z,4.50
2023-03-19T08:32:06.767Z,6.27
2023-03-19T08:37:09.154Z,5.13
2023-03-19T08:42:11.895Z,4.93
2023-03-19T08:47:14.433Z,6.50
2023-03-19T08:52:18.018Z,6.07
2023-03-19T08:57:20.677Z,5.73
2023-03-19T09:02:53.594Z,10.97
2023-03-19T09:08:07.388Z,6.23
2023-03-19T09:13:10.802Z,5.13
2023-03-19T09:18:13.115Z,6.90
2023-03-19T09:23:16.488Z,4.00
2023-03-19T09:28:18.828Z,7.80
2023-03-19T09:33:22.251Z,5.20
2023-03-19T09:38:24.709Z,4.37
2023-03-19T09:43:41.150Z,4.03
2023-03-19T09:48:54.916Z,3.67
2023-03-19T09:54:01.136Z,6.13
2023-03-19T09:59:03.585Z,9.17
2023-03-19T10:10:37.896Z,4.60
2023-03-19T10:15:41.350Z,5.13
2023-03-19T10:20:53.664Z,2.47
2023-03-19T10:25:58.535Z,3.53
2023-03-19T10:31:19.496Z,3.23
2023-03-19T10:36:27.115Z,4.40
2023-03-19T10:42:05.026Z,3.73
2023-03-19T10:47:12.390Z,3.53
2023-03-19T10:52:22.418Z,3.43
2023-03-19T10:57:35.458Z,5.20
2023-03-19T11:02:38.146Z,3.67
2023-03-19T11:07:51.522Z,7.60
2023-03-19T11:12:58.808Z,4.37
2023-03-19T11:18:08.616Z,2.83
2023-03-19T11:23:18.218Z,4.57
2023-03-19T11:28:26.572Z,5.82
2023-03-19T11:34:07.040Z,5.27
2023-03-19T11:39:22.861Z,6.57
2023-03-19T11:44:39.647Z,5.43
2023-03-19T11:50:18.829Z,3.93
2023-03-19T11:56:06.303Z,4.27
2023-03-19T12:01:50.710Z,4.13
2023-03-19T12:07:21.864Z,5.27
2023-03-19T12:13:06.350Z,4.53
2023-03-19T12:18:33.800Z,3.27
2023-03-19T12:24:07.146Z,4.87
2023-03-19T12:29:23.821Z,4.80
2023-03-19T12:34:30.847Z,4.97
2023-03-19T12:39:35.952Z,4.80
2023-03-19T12:44:42.624Z,3.83
2023-03-19T12:50:00.084Z,4.67
2023-03-19T12:55:05.364Z,5.23
2023-03-19T13:00:11.197Z,5.20
2023-03-19T13:05:43.750Z,10.87
2023-03-19T13:11:06.620Z,5.37
2023-03-19T13:16:33.204Z,6.93
2023-03-19T13:21:37.943Z,5.90
2023-03-19T13:26:40.350Z,2.97
2023-03-19T13:31:43.669Z,4.77
2023-03-19T13:36:48.996Z,4.93
2023-03-19T13:41:53.721Z,4.17
2023-03-19T13:46:56.015Z,5.43
2023-03-19T13:52:23.925Z,4.37
2023-03-19T13:57:36.001Z,8.40
2023-03-19T14:02:38.585Z,5.03
2023-03-19T14:07:42.675Z,4.07
2023-03-19T14:12:50.059Z,5.93
2023-03-19T14:17:59.802Z,4.70
2023-03-19T14:28:19.143Z,5.50
2023-03-19T14:33:35.070Z,6.80
2023-03-19T14:39:05.360Z,7.23
2023-03-19T14:44:23.095Z,5.03
2023-03-19T14:49:49.813Z,6.13
2023-03-19T14:54:59.188Z,5.20
2023-03-19T15:00:02.277Z,7.68
2023-03-19T15:05:09.374Z,7.43
2023-03-19T15:10:19.861Z,9.50
2023-03-19T15:15:35.393Z,17.33
2023-03-19T15:20:40.190Z,16.17
2023-03-19T15:25:47.343Z,12.60
2023-03-19T15:31:13.342Z,10.67
2023-03-19T15:36:30.374Z,11.10
2023-03-19T15:41:35.274Z,8.63
2023-03-19T15:46:39.317Z,5.10
2023-03-19T15:51:42.305Z,6.07
2023-03-19T15:56:44.590Z,7.10
2023-03-19T16:01:47.002Z,5.87
2023-03-19T16:06:50.105Z,9.33
2023-03-19T16:11:53.325Z,7.13
2023-03-19T16:17:13.180Z,6.97
2023-03-19T16:22:17.778Z,6.15
2023-03-19T16:27:22.817Z,10.80
2023-03-19T16:32:30.015Z,7.90
2023-03-19T16:37:35.268Z,6.23
2023-03-19T16:42:51.073Z,8.80
2023-03-19T16:48:03.653Z,6.80
2023-03-19T16:53:24.196Z,7.90
2023-03-19T16:58:43.002Z,7.07
2023-03-19T17:03:46.031Z,9.73
2023-03-19T17:08:48.515Z,8.50
2023-03-19T17:13:54.079Z,11.50
2023-03-19T17:18:56.897Z,7.27
2023-03-19T17:24:01.019Z,10.03
2023-03-19T17:29:03.490Z,8.20
2023-03-19T17:34:11.727Z,10.17
2023-03-19T17:39:14.061Z,6.73
2023-03-19T17:44:16.518Z,8.30
2023-03-19T17:49:24.256Z,9.97
2023-03-19T17:54:28.183Z,11.87
2023-03-19T17:59:30.467Z,9.47
2023-03-19T18:04:32.709Z,8.63
2023-03-19T18:09:35.134Z,10.17
2023-03-19T18:14:37.505Z,8.50
2023-03-19T18:19:39.941Z,9.00
2023-03-19T18:24:43.149Z,11.77
2023-03-19T18:29:47.797Z,7.53
2023-03-19T18:34:53.029Z,6.17
2023-03-19T18:39:58.148Z,10.27
2023-03-19T18:45:01.615Z,9.37
2023-03-19T18:50:27.457Z,10.03
2023-03-19T18:55:30.656Z,8.80
2023-03-19T19:00:35.394Z,11.73
2023-03-19T19:05:37.699Z,15.33
2023-03-19T19:10:40.605Z,12.53
2023-03-19T19:15:42.902Z,30.60
2023-03-19T19:20:47.278Z,27.57
2023-03-19T19:25:52.329Z,22.50
2023-03-19T19:30:56.315Z,13.93
2023-03-19T19:35:58.689Z,14.50
2023-03-19T19:41:01.177Z,9.33
2023-03-19T19:46:03.463Z,14.70
2023-03-19T19:51:08.291Z,12.23
2023-03-19T19:56:21.983Z,8.23
2023-03-19T20:01:25.790Z,15.20
2023-03-19T20:06:28.167Z,7.30
2023-03-19T20:11:32.898Z,12.00
2023-03-19T20:16:35.133Z,15.80
2023-03-19T20:21:37.314Z,15.20
2023-03-19T20:26:39.491Z,19.13
2023-03-19T20:31:41.671Z,13.30
2023-03-19T20:36:43.971Z,14.40
2023-03-19T20:41:46.294Z,9.97
2023-03-19T20:46:51.025Z,12.40
2023-03-19T20:51:53.221Z,13.90
2023-03-19T20:56:55.533Z,14.97
2023-03-19T21:01:57.937Z,9.03
2023-03-19T21:07:00.846Z,11.73
2023-03-19T21:12:03.196Z,13.37
2023-03-19T21:17:07.326Z,9.37
2023-03-19T21:22:16.054Z,9.50
2023-03-19T21:27:24.159Z,11.77
2023-03-19T21:32:26.360Z,10.67
2023-03-19T21:37:28.519Z,10.93
2023-03-19T21:42:31.984Z,8.83
2023-03-19T21:47:34.076Z,11.70
2023-03-19T21:52:54.054Z,10.40
2023-03-19T21:57:59.015Z,8.20
2023-03-19T22:03:01.875Z,10.73
2023-03-19T22:08:04.118Z,9.67
2023-03-19T22:13:06.616Z,9.93
2023-03-19T22:18:14.477Z,10.63
2023-03-19T22:23:17.271Z,12.83
2023-03-19T22:28:32.685Z,7.97
2023-03-19T22:33:34.944Z,11.23
2023-03-19T22:38:37.250Z,7.60
2023-03-19T22:43:39.357Z,12.63
2023-03-19T22:48:42.865Z,13.37
2023-03-19T22:53:45.731Z,7.03
2023-03-19T22:58:48.948Z,9.77
2023-03-19T23:03:51.960Z,7.17
2023-03-19T23:08:54.202Z,9.63
2023-03-19T23:13:56.865Z,6.87
2023-03-19T23:18:59.059Z,8.67
2023-03-19T23:24:01.525Z,9.47
2023-03-19T23:29:06.112Z,7.40
2023-03-19T23:34:11.406Z,9.20
2023-03-19T23:39:14.293Z,9.10
2023-03-19T23:44:17.900Z,5.97
2023-03-19T23:49:29.282Z,7.50
2023-03-19T23:54:34.631Z,6.80
2023-03-19T23:59:38.958Z,7.63
